»·PEaware :: N899M KSAC-KFAT

N899M :: KSAC-KFAT

FLIGHT INFORMATION

Flight Status: Arrived
Operator: Privately registered:
United States
More flights under this callsign
Pilot: Robert C. (30425)
Aircraft: Unknown
(EPIC)
More flights by this aircraft type
Origin: KSAC Sacramento Executive
United States
Destination: KFAT Fresno Yosemite Intl
United States
More flights between these airports :: More routes between these airports
Route: LIN HYP
File this flight plan on PilotEdge
Remarks:
Altitude:
(Current/Filed)
9,500ft
Speed:
(Current/Filed)
275kts
Departed: 05-Oct-20 08:01 PM
Arrived: 05-Oct-20 09:22 PM
Distance/Time
Traveled:
134nm/1:20
Distance/Time
To Go:
Arrived

Flight Plot

Page will automatically refresh every two minutes.

Flight plan parsing failed; only flown route is shown


Map Options




Map Legend


Flown Route
Filed Route
Departure Airport
Arrival Airport
Navaid (VOR, NDB)
Fix

Horizontal Profiles

Position Reports

Time Latitude Longitude Heading Altitude Ground
Speed
05-Oct-20 19:40 38.514690 -121.499307 223 23ft 0kts
05-Oct-20 19:41 38.514690 -121.499307 223 23ft 0kts
05-Oct-20 19:42 38.514690 -121.499307 223 23ft 0kts
05-Oct-20 19:43 38.514690 -121.499307 222 23ft 0kts
05-Oct-20 19:44 38.514791 -121.499039 20 23ft 1kts
05-Oct-20 19:45 38.514815 -121.498786 127 23ft 0kts
05-Oct-20 19:46 38.514815 -121.498786 127 23ft 0kts
05-Oct-20 19:47 38.514815 -121.498786 127 23ft 0kts
05-Oct-20 19:48 38.514815 -121.498786 127 23ft 0kts
05-Oct-20 19:49 38.514815 -121.498786 127 23ft 0kts
05-Oct-20 19:50 38.514815 -121.498786 127 23ft 0kts
05-Oct-20 19:51 38.514815 -121.498786 127 23ft 0kts
05-Oct-20 19:52 38.514815 -121.498786 127 23ft 0kts
05-Oct-20 19:53 38.514815 -121.498786 127 23ft 0kts
05-Oct-20 19:54 38.514216 -121.497526 103 22ft 13kts
05-Oct-20 19:55 38.513568 -121.495676 91 22ft 0kts
05-Oct-20 19:56 38.515486 -121.493889 33 23ft 15kts
05-Oct-20 19:57 38.518520 -121.491368 31 23ft 21kts
05-Oct-20 19:58 38.519178 -121.490393 103 23ft 0kts
05-Oct-20 19:59 38.518699 -121.489507 205 23ft 0kts
05-Oct-20 20:00 38.516943 -121.490891 213 23ft 65kts
05-Oct-20 20:01 38.477947 -121.523988 215 1516ft 220kts
05-Oct-20 20:02 38.424458 -121.574853 204 3708ft 258kts
05-Oct-20 20:03 38.370031 -121.531704 116 5103ft 286kts
05-Oct-20 20:04 38.331162 -121.448331 131 6310ft 276kts
05-Oct-20 20:05 38.283665 -121.370699 126 7012ft 280kts
05-Oct-20 20:06 38.237556 -121.289797 126 7713ft 283kts
05-Oct-20 20:07 38.191821 -121.209188 126 8407ft 280kts
05-Oct-20 20:08 38.146213 -121.129013 125 9107ft 280kts
05-Oct-20 20:09 38.100374 -121.048521 125 9507ft 282kts
05-Oct-20 20:10 38.045656 -120.980928 151 9502ft 279kts
05-Oct-20 20:11 37.977931 -120.933873 149 9502ft 278kts
05-Oct-20 20:12 37.910523 -120.885989 149 9497ft 278kts
05-Oct-20 20:13 37.853778 -120.845973 149 9479ft 278kts
05-Oct-20 20:15 37.853778 -120.845973 149 9479ft 278kts
05-Oct-20 20:16 37.853778 -120.845973 149 9479ft 278kts
05-Oct-20 20:17 37.853778 -120.845973 149 9479ft 278kts
05-Oct-20 20:18 37.853778 -120.845973 149 9479ft 278kts
05-Oct-20 20:19 37.853778 -120.845973 149 9479ft 278kts
05-Oct-20 20:20 37.853778 -120.845973 149 9479ft 278kts
05-Oct-20 20:21 37.853778 -120.845973 149 9479ft 278kts
05-Oct-20 20:22 37.853778 -120.845973 149 9479ft 278kts
05-Oct-20 20:23 37.853778 -120.845973 149 9479ft 278kts
05-Oct-20 20:24 37.853778 -120.845973 149 9479ft 278kts
05-Oct-20 20:25 37.853778 -120.845973 149 9479ft 278kts
05-Oct-20 20:26 37.853778 -120.845973 149 9479ft 278kts
05-Oct-20 20:27 37.853778 -120.845973 149 9479ft 278kts
05-Oct-20 20:28 37.853778 -120.845973 149 9479ft 278kts
05-Oct-20 20:41 37.624385 -120.947950 216 95ft 0kts
05-Oct-20 20:42 37.624385 -120.947950 216 95ft 0kts
05-Oct-20 20:43 37.624385 -120.947950 216 95ft 0kts
05-Oct-20 20:44 37.624385 -120.947950 216 95ft 0kts
05-Oct-20 20:45 37.624298 -120.948027 214 94ft 0kts
05-Oct-20 20:46 37.623783 -120.947292 120 94ft 12kts
05-Oct-20 20:47 37.623783 -120.947292 120 94ft 12kts
05-Oct-20 20:48 37.623783 -120.947292 120 94ft 12kts
05-Oct-20 20:49 37.623783 -120.947292 120 94ft 12kts
05-Oct-20 20:50 37.623590 -120.946898 124 93ft 14kts
05-Oct-20 20:51 37.621548 -120.943172 130 87ft 11kts
05-Oct-20 20:52 37.622204 -120.946236 304 89ft 86kts
05-Oct-20 20:53 37.635357 -120.968694 312 765ft 191kts
05-Oct-20 20:54 37.674467 -120.978506 25 3041ft 226kts
05-Oct-20 20:55 37.688626 -120.897737 91 4641ft 278kts
05-Oct-20 20:56 37.687228 -120.795602 91 5150ft 284kts
05-Oct-20 20:57 37.650226 -120.722264 154 5502ft 264kts
05-Oct-20 20:58 37.587038 -120.678428 148 5503ft 269kts
05-Oct-20 20:59 37.522715 -120.629850 148 5511ft 270kts
05-Oct-20 21:00 37.458442 -120.580954 148 5489ft 269kts
05-Oct-20 21:01 37.394441 -120.532329 148 5488ft 269kts
05-Oct-20 21:02 37.330255 -120.483658 147 5484ft 270kts
05-Oct-20 21:03 37.265864 -120.434923 147 5481ft 271kts
05-Oct-20 21:04 37.202708 -120.384157 125 5478ft 270kts
05-Oct-20 21:05 37.163883 -120.303640 122 5490ft 267kts
05-Oct-20 21:06 37.124841 -120.231115 125 5495ft 238kts
05-Oct-20 21:07 37.087773 -120.164689 126 5498ft 229kts
05-Oct-20 21:08 37.051506 -120.100070 125 5482ft 227kts
05-Oct-20 21:09 37.011559 -120.036905 157 5063ft 235kts
05-Oct-20 21:10 36.951803 -120.013656 158 4652ft 214kts
05-Oct-20 21:11 36.904736 -119.974013 142 4231ft 202kts
05-Oct-20 21:12 36.861521 -119.931251 141 3524ft 195kts
05-Oct-20 21:13 36.823048 -119.891581 131 2822ft 159kts
05-Oct-20 21:14 36.803118 -119.849130 106 1866ft 142kts
05-Oct-20 21:15 36.792307 -119.805171 106 1418ft 145kts
05-Oct-20 21:16 36.772650 -119.765379 135 1394ft 129kts
05-Oct-20 21:17 36.747194 -119.734464 135 1399ft 127kts
05-Oct-20 21:18 36.726758 -119.699975 76 1294ft 133kts
05-Oct-20 21:19 36.753894 -119.689860 326 1070ft 139kts
05-Oct-20 21:20 36.773114 -119.715296 304 337ft 76kts
05-Oct-20 21:21 36.776444 -119.722604 216 336ft 13kts
05-Oct-20 21:22 36.775668 -119.723240 213 336ft 15kts
05-Oct-20 21:23 36.774765 -119.723766 125 336ft 0kts
05-Oct-20 21:24 36.774765 -119.723766 125 336ft 0kts
05-Oct-20 21:25 36.774765 -119.723766 125 336ft 0kts
05-Oct-20 21:26 36.774765 -119.723766 125 336ft 0kts
05-Oct-20 21:27 36.774765 -119.723766 125 336ft 0kts
05-Oct-20 21:28 36.774765 -119.723766 125 336ft 0kts
05-Oct-20 21:29 36.774765 -119.723766 125 336ft 0kts
05-Oct-20 21:30 36.774765 -119.723766 125 336ft 0kts
05-Oct-20 21:31 36.774765 -119.723766 125 336ft 0kts
05-Oct-20 21:32 36.774765 -119.723766 125 336ft 0kts
05-Oct-20 21:33 36.774765 -119.723766 125 336ft 0kts
05-Oct-20 21:34 36.774765 -119.723766 125 336ft 0kts
05-Oct-20 21:35 36.774765 -119.723766 125 336ft 0kts

Navigation Log

Ident Type
Flight plan parsing failed, navigation log unavailable